CYVR/YVR METAR and TAF weather

Enter ICAO airport designator
Station Type Date Time Source
CYVR METAR 2021/08/02 03:00 UTC NOAA

CYVR 020300Z 11009KT 12SM FEW150 OVC210 23/15 A3003 RMK FU2CS6 FU SLP171 DENSITY ALT 800FT


Station Type Date Time Source
CYVR Decoded METAR 2021/08/02 03:00 UTC NOAA

Vancouver International Air-Port, B. C., Canada (CYVR) 49-11N 123-10W 2M
Aug 01, 2021 - 11:00 PM EDT / 2021.08.02 0300 UTC
Wind: from the ESE (110 degrees) at 10 MPH (9 KT):0
Visibility: 12 mile(s):0
Sky conditions: overcast
Temperature: 73 F (23 C)
Dew Point: 59 F (15 C)
Relative Humidity: 60%
Pressure (altimeter): 30.03 in. Hg (1016 hPa)
ob: CYVR 020300Z 11009KT 12SM FEW150 OVC210 23/15 A3003 RMK FU2CS6 FU SLP171 DENSITY ALT 800FT
cycle: 3

Station Type Date Time Source
CYVR TAF 2021/08/02 03:40 UTC NOAA

TAF CYVR 020238Z 0203/0306 14008KT P6SM SCT180 OVC220
BECMG 0204/0206 10008KT
FM020900 10008KT P6SM SCT220
BECMG 0219/0221 22008KT
RMK NXT FCST BY 020600Z

Example: see airport list